Time,TemperatureF,DewpointF,PressureIn,WindDirection,WindDirectionDegrees,WindSpeedMPH,WindSpeedGustMPH,Humidity,HourlyPrecipIn,Conditions,Clouds,dailyrainin,SoftwareType,DateUTC
2013-06-15 00:07:00,48.2,37.0,29.74,SSE,167,3.0,6.0,65,0.00,,,0.00,weatherlink.com 1.10,2013-06-15 06:07:00,
2013-06-15 00:22:00,49.2,37.0,29.74,South,170,4.0,6.0,63,0.00,,,0.00,weatherlink.com 1.10,2013-06-15 06:22:00,
2013-06-15 00:37:00,49.0,37.0,29.74,SE,127,2.0,5.0,63,0.00,,,0.00,weatherlink.com 1.10,2013-06-15 06:37:00,
2013-06-15 00:52:00,48.2,36.0,29.75,WSW,250,0.0,2.0,63,0.00,,,0.00,weatherlink.com 1.10,2013-06-15 06:52:00,
2013-06-15 01:07:00,47.0,36.0,29.75,SSW,205,1.0,5.0,66,0.00,,,0.00,weatherlink.com 1.10,2013-06-15 07:07:00,
2013-06-15 01:22:00,46.9,36.0,29.74,South,173,1.0,9.0,65,0.00,,,0.00,weatherlink.com 1.10,2013-06-15 07:22:00,
2013-06-15 01:38:00,46.3,35.0,29.75,ESE,117,0.0,6.0,66,0.00,,,0.00,weatherlink.com 1.10,2013-06-15 07:38:00,
2013-06-15 01:53:00,45.6,35.0,29.76,East,84,1.0,2.0,67,0.00,,,0.00,weatherlink.com 1.10,2013-06-15 07:53:00,
2013-06-15 02:08:00,45.8,35.0,29.78,SE,133,0.0,6.0,65,0.00,,,0.00,weatherlink.com 1.10,2013-06-15 08:08:00,
2013-06-15 02:23:00,43.7,35.0,29.79,SW,226,0.0,0.0,72,0.00,,,0.00,weatherlink.com 1.10,2013-06-15 08:23:00,
2013-06-15 02:38:00,42.2,35.0,29.79,West,269,0.0,0.0,75,0.00,,,0.00,weatherlink.com 1.10,2013-06-15 08:38:00,
2013-06-15 02:53:00,40.9,34.0,29.78,SSW,197,2.0,4.0,77,0.00,,,0.00,weatherlink.com 1.10,2013-06-15 08:53:00,
2013-06-15 03:08:00,41.0,34.0,29.78,SW,225,0.0,3.0,77,0.00,,,0.00,weatherlink.com 1.10,2013-06-15 09:08:00,
2013-06-15 03:23:00,40.1,34.0,29.78,SW,225,0.0,0.0,79,0.00,,,0.00,weatherlink.com 1.10,2013-06-15 09:23:00,
2013-06-15 03:38:00,40.2,35.0,29.78,SW,225,0.0,0.0,81,0.00,,,0.00,weatherlink.com 1.10,2013-06-15 09:38:00,
2013-06-15 03:53:00,40.4,35.0,29.77,SSW,195,1.0,3.0,80,0.00,,,0.00,weatherlink.com 1.10,2013-06-15 09:53:00,
2013-06-15 04:08:00,40.1,35.0,29.78,WSW,239,0.0,0.0,81,0.00,,,0.00,weatherlink.com 1.10,2013-06-15 10:08:00,
2013-06-15 04:23:00,38.7,33.0,29.79,WSW,239,0.0,0.0,81,0.00,,,0.00,weatherlink.com 1.10,2013-06-15 10:23:00,
2013-06-15 04:38:00,37.0,33.0,29.79,WSW,239,0.0,0.0,85,0.00,,,0.00,weatherlink.com 1.10,2013-06-15 10:38:00,
2013-06-15 04:53:00,36.4,33.0,29.80,WSW,239,0.0,0.0,88,0.00,,,0.00,weatherlink.com 1.10,2013-06-15 10:53:00,
2013-06-15 05:08:00,35.8,33.0,29.82,WSW,239,0.0,0.0,88,0.00,,,0.00,weatherlink.com 1.10,2013-06-15 11:08:00,
2013-06-15 05:23:00,35.3,32.0,29.83,WSW,239,0.0,0.0,88,0.00,,,0.00,weatherlink.com 1.10,2013-06-15 11:23:00,
2013-06-15 05:38:00,34.9,32.0,29.84,WSW,239,0.0,0.0,88,0.00,,,0.00,weatherlink.com 1.10,2013-06-15 11:38:00,
2013-06-15 05:53:00,35.7,32.0,29.84,WSW,239,0.0,1.0,87,0.00,,,0.00,weatherlink.com 1.10,2013-06-15 11:53:00,
2013-06-15 06:08:00,36.3,33.0,29.84,SSW,212,0.0,0.0,86,0.00,,,0.00,weatherlink.com 1.10,2013-06-15 12:08:00,
2013-06-15 06:23:00,39.0,35.0,29.84,SE,139,0.0,0.0,84,0.00,,,0.00,weatherlink.com 1.10,2013-06-15 12:23:00,
2013-06-15 06:38:00,43.9,36.0,29.84,SSE,167,0.0,2.0,75,0.00,,,0.00,weatherlink.com 1.10,2013-06-15 12:38:00,
2013-06-15 06:53:00,47.3,37.0,29.85,SE,134,0.0,0.0,67,0.00,,,0.00,weatherlink.com 1.10,2013-06-15 12:53:00,
2013-06-15 07:09:00,50.2,37.0,29.84,SE,136,0.0,0.0,62,0.00,,,0.00,weatherlink.com 1.10,2013-06-15 13:09:00,
2013-06-15 07:24:00,52.9,39.0,29.84,South,179,0.0,0.0,59,0.00,,,0.00,weatherlink.com 1.10,2013-06-15 13:24:00,
2013-06-15 07:39:00,54.6,40.0,29.84,SSE,154,0.0,0.0,58,0.00,,,0.00,weatherlink.com 1.10,2013-06-15 13:39:00,
2013-06-15 07:54:00,56.6,43.0,29.84,East,88,0.0,0.0,60,0.00,,,0.00,weatherlink.com 1.10,2013-06-15 13:54:00,
2013-06-15 08:09:00,55.9,43.0,29.83,ENE,70,2.0,5.0,62,0.00,,,0.00,weatherlink.com 1.10,2013-06-15 14:09:00,
2013-06-15 08:24:00,56.3,43.0,29.84,East,92,4.0,5.0,61,0.00,,,0.00,weatherlink.com 1.10,2013-06-15 14:24:00,
2013-06-15 08:39:00,56.3,42.0,29.83,NE,41,3.0,5.0,60,0.00,,,0.00,weatherlink.com 1.10,2013-06-15 14:39:00,
2013-06-15 08:54:00,57.6,43.0,29.82,WNW,285,1.0,4.0,58,0.00,,,0.00,weatherlink.com 1.10,2013-06-15 14:54:00,
2013-06-15 09:09:00,58.8,43.0,29.82,West,259,1.0,5.0,56,0.00,,,0.00,weatherlink.com 1.10,2013-06-15 15:09:00,
2013-06-15 09:24:00,59.8,43.0,29.81,SE,131,2.0,5.0,55,0.00,,,0.00,weatherlink.com 1.10,2013-06-15 15:24:00,
2013-06-15 09:39:00,61.5,43.0,29.80,SE,131,2.0,5.0,52,0.00,,,0.00,weatherlink.com 1.10,2013-06-15 15:39:00,
2013-06-15 09:54:00,60.8,43.0,29.80,ESE,114,2.0,6.0,53,0.00,,,0.00,weatherlink.com 1.10,2013-06-15 15:54:00,
2013-06-15 10:09:00,61.3,44.0,29.80,ESE,120,6.0,9.0,53,0.00,,,0.00,weatherlink.com 1.10,2013-06-15 16:09:00,
2013-06-15 10:24:00,61.8,44.0,29.79,ESE,108,8.0,8.0,53,0.00,,,0.00,weatherlink.com 1.10,2013-06-15 16:24:00,
2013-06-15 10:39:00,60.8,44.0,29.79,ENE,71,5.0,9.0,54,0.00,,,0.00,weatherlink.com 1.10,2013-06-15 16:39:00,
2013-06-15 10:54:00,60.5,44.0,29.79,ENE,68,9.0,10.0,55,0.00,,,0.00,weatherlink.com 1.10,2013-06-15 16:54:00,
2013-06-15 11:09:00,61.5,44.0,29.79,East,96,6.0,11.0,54,0.00,,,0.00,weatherlink.com 1.10,2013-06-15 17:09:00,
2013-06-15 11:24:00,62.0,44.0,29.79,ENE,62,10.0,11.0,53,0.00,,,0.00,weatherlink.com 1.10,2013-06-15 17:24:00,
2013-06-15 11:39:00,61.4,45.0,29.79,ESE,113,7.0,13.0,55,0.00,,,0.00,weatherlink.com 1.10,2013-06-15 17:39:00,
2013-06-15 11:54:00,62.2,45.0,29.79,East,85,13.0,13.0,54,0.00,,,0.00,weatherlink.com 1.10,2013-06-15 17:54:00,
2013-06-15 12:09:00,61.7,45.0,29.79,East,89,12.0,15.0,55,0.00,,,0.00,weatherlink.com 1.10,2013-06-15 18:09:00,
2013-06-15 12:24:00,63.7,46.0,29.79,ENE,77,5.0,8.0,52,0.00,,,0.00,weatherlink.com 1.10,2013-06-15 18:24:00,
2013-06-15 12:39:00,62.4,45.0,29.79,ESE,106,3.0,11.0,54,0.00,,,0.00,weatherlink.com 1.10,2013-06-15 18:39:00,
2013-06-15 12:54:00,62.9,45.0,29.79,ENE,68,3.0,12.0,53,0.00,,,0.00,weatherlink.com 1.10,2013-06-15 18:54:00,
2013-06-15 13:09:00,63.1,45.0,29.79,East,86,7.0,10.0,53,0.00,,,0.00,weatherlink.com 1.10,2013-06-15 19:09:00,
2013-06-15 13:24:00,64.6,46.0,29.79,East,87,5.0,14.0,51,0.00,,,0.00,weatherlink.com 1.10,2013-06-15 19:24:00,
2013-06-15 13:39:00,64.6,45.0,29.77,East,92,11.0,14.0,50,0.00,,,0.00,weatherlink.com 1.10,2013-06-15 19:39:00,
2013-06-15 13:54:00,63.9,46.0,29.78,East,93,10.0,13.0,52,0.00,,,0.00,weatherlink.com 1.10,2013-06-15 19:54:00,
2013-06-15 14:09:00,63.9,46.0,29.78,ENE,65,4.0,12.0,53,0.00,,,0.00,weatherlink.com 1.10,2013-06-15 20:09:00,
2013-06-15 14:24:00,64.1,46.0,29.78,East,94,8.0,11.0,52,0.00,,,0.00,weatherlink.com 1.10,2013-06-15 20:24:00,
2013-06-15 14:39:00,63.2,46.0,29.77,East,86,8.0,12.0,53,0.00,,,0.00,weatherlink.com 1.10,2013-06-15 20:39:00,
2013-06-15 14:54:00,63.4,46.0,29.78,East,85,8.0,10.0,53,0.00,,,0.00,weatherlink.com 1.10,2013-06-15 20:54:00,
2013-06-15 15:09:00,62.7,46.0,29.79,ENE,61,7.0,11.0,55,0.00,,,0.00,weatherlink.com 1.10,2013-06-15 21:09:00,
2013-06-15 15:24:00,63.6,46.0,29.79,ENE,77,3.0,16.0,53,0.00,,,0.00,weatherlink.com 1.10,2013-06-15 21:24:00,
2013-06-15 15:39:00,61.7,46.0,29.81,East,86,10.0,10.0,56,0.00,,,0.00,weatherlink.com 1.10,2013-06-15 21:39:00,
2013-06-15 15:54:00,60.6,46.0,29.80,NE,43,6.0,12.0,58,0.00,,,0.00,weatherlink.com 1.10,2013-06-15 21:54:00,
2013-06-15 16:09:00,60.0,45.0,29.81,ENE,75,9.0,9.0,58,0.00,,,0.00,weatherlink.com 1.10,2013-06-15 22:09:00,
2013-06-15 16:24:00,59.4,45.0,29.81,WNW,298,1.0,8.0,59,0.00,,,0.00,weatherlink.com 1.10,2013-06-15 22:24:00,
2013-06-15 16:39:00,60.9,45.0,29.80,North,354,3.0,7.0,57,0.00,,,0.00,weatherlink.com 1.10,2013-06-15 22:39:00,
2013-06-15 16:54:00,62.6,45.0,29.79,ENE,68,5.0,6.0,52,0.00,,,0.00,weatherlink.com 1.10,2013-06-15 22:54:00,
2013-06-15 17:09:00,63.1,44.0,29.79,ENE,70,7.0,8.0,51,0.00,,,0.00,weatherlink.com 1.10,2013-06-15 23:09:00,
2013-06-15 17:24:00,61.4,44.0,29.79,East,100,3.0,5.0,54,0.00,,,0.00,weatherlink.com 1.10,2013-06-15 23:24:00,
2013-06-15 17:39:00,61.2,44.0,29.79,ENE,71,0.0,3.0,54,0.00,,,0.00,weatherlink.com 1.10,2013-06-15 23:39:00,
2013-06-15 17:54:00,61.8,45.0,29.79,ENE,71,0.0,2.0,54,0.00,,,0.00,weatherlink.com 1.10,2013-06-15 23:54:00,
2013-06-15 18:09:00,62.0,45.0,29.80,ENE,71,1.0,5.0,54,0.00,,,0.00,weatherlink.com 1.10,2013-06-16 00:09:00,
2013-06-15 18:24:00,61.8,45.0,29.81,NE,37,0.0,6.0,54,0.00,,,0.00,weatherlink.com 1.10,2013-06-16 00:24:00,
2013-06-15 18:39:00,60.8,44.0,29.82,NNE,30,1.0,5.0,54,0.00,,,0.00,weatherlink.com 1.10,2013-06-16 00:39:00,
2013-06-15 18:54:00,59.9,45.0,29.83,WNW,297,1.0,2.0,58,0.00,,,0.00,weatherlink.com 1.10,2013-06-16 00:54:00,
2013-06-15 19:09:00,59.1,45.0,29.82,ENE,68,3.0,3.0,59,0.00,,,0.00,weatherlink.com 1.10,2013-06-16 01:09:00,
2013-06-15 19:24:00,58.9,44.0,29.82,WNW,295,1.0,5.0,59,0.00,,,0.00,weatherlink.com 1.10,2013-06-16 01:24:00,
2013-06-15 19:40:00,58.5,45.0,29.84,WNW,300,0.0,2.0,61,0.00,,,0.00,weatherlink.com 1.10,2013-06-16 01:40:00,
2013-06-15 19:55:00,58.3,46.0,29.84,WNW,300,0.0,0.0,63,0.00,,,0.00,weatherlink.com 1.10,2013-06-16 01:55:00,
2013-06-15 20:10:00,57.6,46.0,29.85,WNW,300,0.0,0.0,65,0.00,,,0.00,weatherlink.com 1.10,2013-06-16 02:10:00,
2013-06-15 20:25:00,56.1,46.0,29.85,WNW,301,0.0,0.0,68,0.00,,,0.00,weatherlink.com 1.10,2013-06-16 02:25:00,
2013-06-15 20:40:00,53.9,45.0,29.85,WNW,300,0.0,0.0,73,0.00,,,0.00,weatherlink.com 1.10,2013-06-16 02:40:00,
2013-06-15 20:55:00,52.7,45.0,29.86,SSW,208,0.0,0.0,76,0.00,,,0.00,weatherlink.com 1.10,2013-06-16 02:55:00,
2013-06-15 21:10:00,52.4,45.0,29.86,SW,229,0.0,0.0,77,0.00,,,0.00,weatherlink.com 1.10,2013-06-16 03:10:00,
2013-06-15 21:25:00,52.0,45.0,29.87,SW,223,0.0,3.0,77,0.00,,,0.00,weatherlink.com 1.10,2013-06-16 03:25:00,
2013-06-15 21:40:00,51.8,45.0,29.89,ESE,120,0.0,1.0,77,0.00,,,0.00,weatherlink.com 1.10,2013-06-16 03:40:00,
2013-06-15 21:55:00,50.9,45.0,29.89,WSW,238,0.0,1.0,79,0.00,,,0.00,weatherlink.com 1.10,2013-06-16 03:55:00,
2013-06-15 22:10:00,50.8,45.0,29.90,WSW,239,0.0,1.0,79,0.00,,,0.00,weatherlink.com 1.10,2013-06-16 04:10:00,
2013-06-15 22:25:00,51.0,44.0,29.91,SW,221,0.0,1.0,78,0.00,,,0.00,weatherlink.com 1.10,2013-06-16 04:25:00,
2013-06-15 22:40:00,50.9,44.0,29.92,South,185,0.0,2.0,78,0.00,,,0.00,weatherlink.com 1.10,2013-06-16 04:40:00,
2013-06-15 22:55:00,50.7,44.0,29.92,SW,221,1.0,2.0,78,0.00,,,0.00,weatherlink.com 1.10,2013-06-16 04:55:00,
2013-06-15 23:10:00,49.8,44.0,29.92,WSW,245,0.0,2.0,79,0.00,,,0.00,weatherlink.com 1.10,2013-06-16 05:10:00,
2013-06-15 23:25:00,48.5,43.0,29.92,WSW,245,0.0,0.0,81,0.00,,,0.00,weatherlink.com 1.10,2013-06-16 05:25:00,
2013-06-15 23:40:00,47.9,43.0,29.92,SSW,210,3.0,4.0,82,0.00,,,0.00,weatherlink.com 1.10,2013-06-16 05:40:00,
2013-06-15 23:55:00,48.8,42.0,29.92,SSW,210,1.0,6.0,78,0.00,,,0.00,weatherlink.com 1.10,2013-06-16 05:55:00,